createdAt,value
2022-10-27T00:01:11.453Z,101877.63
2022-10-27T00:02:44.558Z,101874.91
2022-10-27T00:04:16.412Z,101880.06
2022-10-27T00:05:48.570Z,101885.38
2022-10-27T00:07:20.143Z,101887.22
2022-10-27T00:08:51.826Z,101883.78
2022-10-27T00:10:23.630Z,101887.41
2022-10-27T00:11:56.095Z,101876.00
2022-10-27T00:13:28.868Z,101882.16
2022-10-27T00:15:00.774Z,101883.91
2022-10-27T00:16:32.498Z,101874.22
2022-10-27T00:18:09.852Z,101881.19
2022-10-27T00:19:41.589Z,101878.50
2022-10-27T00:21:15.412Z,101883.72
2022-10-27T00:22:47.585Z,101874.81
2022-10-27T00:24:19.678Z,101888.16
2022-10-27T00:25:54.388Z,101875.03
2022-10-27T00:27:26.029Z,101882.28
2022-10-27T00:28:58.325Z,101880.66
2022-10-27T00:30:29.967Z,101875.53
2022-10-27T00:32:01.813Z,101874.78
2022-10-27T00:33:34.880Z,101881.94
2022-10-27T00:35:07.139Z,101882.94
2022-10-27T00:36:38.807Z,101888.25
2022-10-27T00:38:10.429Z,101887.44
2022-10-27T00:39:42.013Z,101878.56
2022-10-27T00:41:25.157Z,101879.38
2022-10-27T00:42:56.782Z,101878.56
2022-10-27T00:44:32.170Z,101889.97
2022-10-27T00:46:15.564Z,101882.03
2022-10-27T00:47:48.281Z,101886.53
2022-10-27T00:49:25.344Z,101881.22
2022-10-27T00:50:59.780Z,101889.13
2022-10-27T00:52:34.874Z,101889.16
2022-10-27T00:54:07.217Z,101892.75
2022-10-27T00:55:39.696Z,101884.94
2022-10-27T00:57:12.461Z,101882.22
2022-10-27T00:58:45.254Z,101889.22
2022-10-27T01:00:17.927Z,101880.44
2022-10-27T01:01:52.433Z,101888.44
2022-10-27T01:03:24.237Z,101888.50
2022-10-27T01:05:02.385Z,101896.50
2022-10-27T01:06:36.490Z,101891.25
2022-10-27T01:08:08.333Z,101896.59
2022-10-27T01:09:44.359Z,101885.94
2022-10-27T01:11:15.962Z,101885.84
2022-10-27T01:12:48.717Z,101895.53
2022-10-27T01:14:20.635Z,101893.84
2022-10-27T01:16:06.210Z,101893.84
2022-10-27T01:17:48.805Z,101897.41
2022-10-27T01:19:46.803Z,101894.88
2022-10-27T01:21:57.217Z,101890.53
2022-10-27T01:23:39.511Z,101900.31
2022-10-27T01:25:31.931Z,101904.69
2022-10-27T01:27:07.455Z,101901.31
2022-10-27T01:29:01.941Z,101905.81
2022-10-27T01:30:39.906Z,101901.38
2022-10-27T01:32:25.120Z,101909.31
2022-10-27T01:34:03.384Z,101905.00
2022-10-27T01:35:43.866Z,101913.81
2022-10-27T01:37:21.431Z,101906.78
2022-10-27T01:38:59.156Z,101907.69
2022-10-27T01:40:37.473Z,101905.03
2022-10-27T01:42:14.125Z,101891.00
2022-10-27T01:43:49.141Z,101898.94
2022-10-27T01:45:24.192Z,101901.56
2022-10-27T01:46:57.057Z,101896.28
2022-10-27T01:48:33.115Z,101905.97
2022-10-27T01:50:06.307Z,101908.56
2022-10-27T01:51:37.882Z,101907.59
2022-10-27T01:53:11.067Z,101907.59
2022-10-27T01:54:42.684Z,101905.81
2022-10-27T01:56:35.390Z,101910.13
2022-10-27T01:58:21.723Z,101904.84
2022-10-27T02:00:03.049Z,101904.84
2022-10-27T02:01:47.572Z,101904.03
2022-10-27T02:03:25.345Z,101904.03
2022-10-27T02:05:06.560Z,101903.22
2022-10-27T02:06:45.585Z,101912.06
2022-10-27T02:08:25.106Z,101908.59
2022-10-27T02:10:03.877Z,101909.56
2022-10-27T02:11:39.642Z,101919.41
2022-10-27T02:13:12.153Z,101913.25
2022-10-27T02:14:45.158Z,101917.72
2022-10-27T02:16:25.211Z,101923.91
2022-10-27T02:18:00.330Z,101916.13
2022-10-27T02:19:35.308Z,101915.31
2022-10-27T02:21:10.109Z,101919.81
2022-10-27T02:22:44.125Z,101919.84
2022-10-27T02:24:17.453Z,101924.31
2022-10-27T02:25:56.374Z,101920.84
2022-10-27T02:27:34.828Z,101916.47
2022-10-27T02:29:12.921Z,101922.63
2022-10-27T02:32:22.444Z,101917.44
2022-10-27T02:33:55.229Z,101912.19
2022-10-27T02:35:27.340Z,101915.69
2022-10-27T02:37:00.780Z,101918.41
2022-10-27T02:38:32.378Z,101921.97
2022-10-27T02:40:05.144Z,101917.53
2022-10-27T02:41:36.743Z,101914.00
2022-10-27T02:43:08.327Z,101910.50
2022-10-27T02:44:39.902Z,101920.22
2022-10-27T02:46:11.504Z,101913.16
2022-10-27T02:47:43.129Z,101910.50
2022-10-27T02:49:14.733Z,101912.28
2022-10-27T02:50:46.347Z,101909.63
2022-10-27T02:52:19.280Z,101909.63
2022-10-27T02:53:50.896Z,101911.47
2022-10-27T02:55:22.557Z,101919.47
2022-10-27T02:56:54.151Z,101913.31
2022-10-27T02:58:25.849Z,101910.66
2022-10-27T02:59:57.417Z,101905.41
2022-10-27T03:01:29.441Z,101908.91
2022-10-27T03:03:02.732Z,101908.91
2022-10-27T03:04:34.362Z,101907.19
2022-10-27T03:06:06.360Z,101903.75
2022-10-27T03:07:39.334Z,101904.66
2022-10-27T03:09:10.957Z,101901.16
2022-10-27T03:10:43.866Z,101904.72
2022-10-27T03:12:15.539Z,101900.44
2022-10-27T03:13:47.165Z,101898.78
2022-10-27T03:15:18.772Z,101891.03
2022-10-27T03:16:50.394Z,101893.69
2022-10-27T03:18:22.123Z,101887.47
2022-10-27T03:19:53.842Z,101893.69
2022-10-27T03:21:25.470Z,101886.66
2022-10-27T03:22:58.508Z,101884.06
2022-10-27T03:24:30.147Z,101885.84
2022-10-27T03:26:01.796Z,101885.03
2022-10-27T03:27:33.402Z,101890.28
2022-10-27T03:29:05.024Z,101889.41
2022-10-27T03:30:36.698Z,101884.09
2022-10-27T03:32:08.280Z,101887.63
2022-10-27T03:33:39.970Z,101889.34
2022-10-27T03:35:11.573Z,101886.72
2022-10-27T03:36:43.191Z,101879.59
2022-10-27T03:38:16.158Z,101890.16
2022-10-27T03:39:47.764Z,101884.94
2022-10-27T03:41:19.380Z,101891.91
2022-10-27T03:42:51.315Z,101884.84
2022-10-27T03:44:23.166Z,101883.97
2022-10-27T03:45:57.221Z,101883.09
2022-10-27T03:47:31.830Z,101889.22
2022-10-27T03:49:03.436Z,101879.53
2022-10-27T03:50:35.233Z,101878.63
2022-10-27T03:52:06.898Z,101886.47
2022-10-27T03:53:39.883Z,101881.19
2022-10-27T03:55:11.480Z,101880.41
2022-10-27T03:56:43.081Z,101884.84
2022-10-27T03:58:16.826Z,101882.19
2022-10-27T03:59:48.983Z,101882.28
2022-10-27T04:01:20.730Z,101877.00
2022-10-27T04:02:54.349Z,101884.94
2022-10-27T04:04:26.129Z,101877.91
2022-10-27T04:05:57.857Z,101886.72
2022-10-27T04:07:29.497Z,101877.91
2022-10-27T04:09:02.692Z,101876.13
2022-10-27T04:10:34.391Z,101881.47
2022-10-27T04:12:06.608Z,101882.28
2022-10-27T04:13:38.346Z,101878.81
2022-10-27T04:15:10.513Z,101885.88
2022-10-27T04:16:42.190Z,101885.94
2022-10-27T04:18:13.949Z,101883.34
2022-10-27T04:19:45.886Z,101893.06
2022-10-27T04:21:17.564Z,101883.38
2022-10-27T04:22:49.512Z,101891.31
2022-10-27T04:24:22.730Z,101892.22
2022-10-27T04:25:54.417Z,101885.22
2022-10-27T04:27:26.016Z,101886.13
2022-10-27T04:28:57.630Z,101869.50
2022-10-27T04:30:29.304Z,101885.44
2022-10-27T04:32:01.030Z,101881.91
2022-10-27T04:33:32.773Z,101875.72
2022-10-27T04:35:04.961Z,101881.88
2022-10-27T04:36:36.600Z,101880.91
2022-10-27T04:38:08.236Z,101876.50
2022-10-27T04:39:41.237Z,101868.47
2022-10-27T04:41:12.833Z,101876.41
2022-10-27T04:42:45.875Z,101882.56
2022-10-27T04:44:17.497Z,101877.28
2022-10-27T04:45:49.100Z,101873.75
2022-10-27T04:47:20.780Z,101880.84
2022-10-27T04:48:52.629Z,101868.56
2022-10-27T04:50:24.275Z,101875.63
2022-10-27T04:51:56.101Z,101868.47
2022-10-27T04:53:27.716Z,101871.13
2022-10-27T04:55:00.779Z,101877.28
2022-10-27T04:56:32.466Z,101883.47
2022-10-27T04:58:06.856Z,101878.28
2022-10-27T04:59:38.630Z,101873.03
2022-10-27T05:01:12.047Z,101880.97
2022-10-27T05:02:43.874Z,101867.69
2022-10-27T05:04:15.545Z,101871.19
2022-10-27T05:05:47.194Z,101864.09
2022-10-27T05:07:18.826Z,101866.75
2022-10-27T05:08:50.499Z,101876.50
2022-10-27T05:10:24.415Z,101872.16
2022-10-27T05:11:56.029Z,101873.94
2022-10-27T05:13:27.680Z,101883.66
2022-10-27T05:14:59.383Z,101886.34
2022-10-27T05:16:31.070Z,101889.03
2022-10-27T05:18:04.043Z,101880.28
2022-10-27T05:19:37.250Z,101878.50
2022-10-27T05:21:09.146Z,101881.16
2022-10-27T05:22:40.895Z,101879.31
2022-10-27T05:24:12.560Z,101877.50
2022-10-27T05:25:45.570Z,101881.88
2022-10-27T05:27:17.188Z,101889.81
2022-10-27T05:28:48.964Z,101877.50
2022-10-27T05:30:20.629Z,101886.25
2022-10-27T05:31:53.003Z,101880.16
2022-10-27T05:33:25.222Z,101881.00
2022-10-27T05:34:56.891Z,101881.91
2022-10-27T05:36:28.489Z,101883.69
2022-10-27T05:38:00.159Z,101879.31
2022-10-27T05:39:31.909Z,101881.16
2022-10-27T05:41:05.584Z,101890.00
2022-10-27T05:42:37.236Z,101885.63
2022-10-27T05:44:09.178Z,101883.78
2022-10-27T05:45:40.825Z,101889.13
2022-10-27T05:47:12.570Z,101886.53
2022-10-27T05:48:44.308Z,101885.66
2022-10-27T05:50:15.977Z,101883.94
2022-10-27T05:51:49.134Z,101879.50
2022-10-27T05:53:21.377Z,101883.16
2022-10-27T05:54:53.009Z,101888.53
2022-10-27T05:56:26.101Z,101879.78
2022-10-27T05:58:00.226Z,101881.66
2022-10-27T05:59:32.005Z,101883.38
2022-10-27T06:01:03.672Z,101885.13
2022-10-27T06:02:35.438Z,101885.16
2022-10-27T06:04:07.116Z,101886.03
2022-10-27T06:05:38.737Z,101890.50
2022-10-27T06:07:10.371Z,101894.03
2022-10-27T06:08:42.077Z,101888.81
2022-10-27T06:10:13.705Z,101889.72
2022-10-27T06:11:46.854Z,101900.28
2022-10-27T06:13:19.136Z,101895.88
2022-10-27T06:14:50.754Z,101899.38
2022-10-27T06:16:25.532Z,101897.59
2022-10-27T06:17:57.286Z,101894.13
2022-10-27T06:19:28.912Z,101896.84
2022-10-27T06:21:00.661Z,101900.38
2022-10-27T06:22:32.336Z,101904.84
2022-10-27T06:25:40.993Z,101902.16
2022-10-27T06:27:13.965Z,101892.31
2022-10-27T06:28:45.739Z,101905.59
2022-10-27T06:30:17.345Z,101908.31
2022-10-27T06:31:48.992Z,101915.28
2022-10-27T06:33:20.715Z,101903.81
2022-10-27T06:34:52.369Z,101909.91
2022-10-27T06:36:24.341Z,101909.81
2022-10-27T06:37:55.970Z,101914.19
2022-10-27T06:39:28.939Z,101920.25
2022-10-27T06:41:00.598Z,101914.94
2022-10-27T06:42:48.608Z,101911.47
2022-10-27T06:44:21.194Z,101910.66
2022-10-27T06:45:52.885Z,101905.34
2022-10-27T06:47:24.539Z,101915.03
2022-10-27T06:48:56.284Z,101913.19
2022-10-27T06:50:28.536Z,101913.19
2022-10-27T06:52:00.349Z,101915.03
2022-10-27T06:53:31.979Z,101918.56
2022-10-27T06:55:04.890Z,101922.91
2022-10-27T06:56:36.559Z,101914.09
2022-10-27T06:58:09.700Z,101906.09
2022-10-27T06:59:41.427Z,101905.97
2022-10-27T07:01:13.252Z,101905.88
2022-10-27T07:02:45.298Z,101910.25
2022-10-27T07:04:16.926Z,101904.03
2022-10-27T07:05:49.104Z,101907.50
2022-10-27T07:07:20.882Z,101903.94
2022-10-27T07:08:52.956Z,101903.00
2022-10-27T07:10:24.810Z,101901.94
2022-10-27T07:11:56.590Z,101901.09
2022-10-27T07:13:29.670Z,101897.53
2022-10-27T07:15:01.555Z,101901.00
2022-10-27T07:16:35.011Z,101905.31
2022-10-27T07:18:08.614Z,101898.09
2022-10-27T07:19:40.250Z,101898.94
2022-10-27T07:21:11.874Z,101904.97
2022-10-27T07:22:43.456Z,101896.81
2022-10-27T07:24:15.108Z,101896.56
2022-10-27T07:25:48.705Z,101898.13
2022-10-27T07:27:20.564Z,101893.59
2022-10-27T07:28:53.589Z,101897.81
2022-10-27T07:30:28.117Z,101891.59
2022-10-27T07:31:59.711Z,101895.97
2022-10-27T07:33:31.444Z,101887.06
2022-10-27T07:35:03.347Z,101873.69
2022-10-27T07:36:35.049Z,101869.19
2022-10-27T07:38:07.835Z,101871.53
2022-10-27T07:39:39.415Z,101872.25
2022-10-27T07:41:11.232Z,101862.38
2022-10-27T07:42:44.835Z,101871.84
2022-10-27T07:44:18.098Z,101870.81
2022-10-27T07:45:49.754Z,101871.53
2022-10-27T07:47:21.432Z,101871.38
2022-10-27T07:48:53.125Z,101878.31
2022-10-27T07:50:33.150Z,101875.50
2022-10-27T07:52:05.102Z,101874.44
2022-10-27T07:53:36.763Z,101869.84
2022-10-27T07:55:11.657Z,101873.97
2022-10-27T07:56:48.152Z,101881.69
2022-10-27T07:58:19.871Z,101880.72
2022-10-27T07:59:52.840Z,101880.66
2022-10-27T08:01:24.619Z,101876.88
2022-10-27T08:02:59.643Z,101873.84
2022-10-27T08:04:31.276Z,101871.84
2022-10-27T08:06:05.982Z,101876.94
2022-10-27T08:07:38.799Z,101872.22
2022-10-27T08:09:10.712Z,101868.34
2022-10-27T08:10:44.423Z,101870.81
2022-10-27T08:12:16.082Z,101871.47
2022-10-27T08:13:48.095Z,101881.03
2022-10-27T08:15:21.249Z,101875.47
2022-10-27T08:16:52.867Z,101883.41
2022-10-27T08:18:24.507Z,101882.25
2022-10-27T08:19:56.230Z,101873.25
2022-10-27T08:21:27.929Z,101877.41
2022-10-27T08:23:00.831Z,101874.69
2022-10-27T08:24:32.566Z,101873.59
2022-10-27T08:26:04.317Z,101868.09
2022-10-27T08:27:36.207Z,101874.84
2022-10-27T08:29:07.819Z,101878.50
2022-10-27T08:30:48.330Z,101883.88
2022-10-27T08:32:23.432Z,101881.94
2022-10-27T08:33:55.180Z,101885.22
2022-10-27T08:35:28.376Z,101877.03
2022-10-27T08:37:00.121Z,101868.09
2022-10-27T08:38:32.870Z,101875.84
2022-10-27T08:40:06.011Z,101869.44
2022-10-27T08:41:43.202Z,101885.06
2022-10-27T08:43:36.078Z,101872.53
2022-10-27T08:45:12.073Z,101872.94
2022-10-27T08:46:49.508Z,101870.09
2022-10-27T08:48:25.371Z,101863.63
2022-10-27T08:50:02.401Z,101859.69
2022-10-27T08:51:35.628Z,101861.72
2022-10-27T08:53:11.313Z,101864.94
2022-10-27T08:54:47.917Z,101868.25
2022-10-27T08:56:21.711Z,101866.13
2022-10-27T08:58:00.982Z,101870.34
2022-10-27T08:59:34.784Z,101869.41
2022-10-27T09:01:17.703Z,101866.53
2022-10-27T09:03:04.251Z,101865.16
2022-10-27T09:04:57.102Z,101868.59
2022-10-27T09:06:31.640Z,101858.84
2022-10-27T09:08:13.259Z,101858.69
2022-10-27T09:09:52.465Z,101852.28
2022-10-27T09:11:32.702Z,101864.00
2022-10-27T09:13:12.252Z,101857.53
2022-10-27T09:15:04.046Z,101852.66
2022-10-27T09:16:42.005Z,101847.81
2022-10-27T09:18:22.476Z,101846.59
2022-10-27T09:20:01.277Z,101835.94
2022-10-27T09:21:36.786Z,101831.22
2022-10-27T09:23:13.967Z,101836.41
2022-10-27T09:24:52.271Z,101828.75
2022-10-27T09:26:28.783Z,101831.72
2022-10-27T09:28:00.452Z,101823.34
2022-10-27T09:29:36.255Z,101822.94
2022-10-27T09:31:14.290Z,101828.13
2022-10-27T09:32:49.392Z,101824.41
2022-10-27T09:34:27.573Z,101822.16
2022-10-27T09:36:00.229Z,101820.75
2022-10-27T09:37:33.776Z,101824.53
2022-10-27T09:39:05.651Z,101811.81
2022-10-27T09:40:37.626Z,101818.72
2022-10-27T09:42:09.252Z,101811.34
2022-10-27T09:43:41.009Z,101813.75
2022-10-27T09:45:15.955Z,101811.50
2022-10-27T09:46:52.419Z,101811.72
2022-10-27T09:48:26.594Z,101805.81
2022-10-27T09:50:00.252Z,101807.38
2022-10-27T09:51:37.802Z,101807.81
2022-10-27T09:53:37.035Z,101807.66
2022-10-27T09:55:09.080Z,101798.78
2022-10-27T09:56:40.825Z,101796.38
2022-10-27T09:58:12.648Z,101794.56
2022-10-27T09:59:50.140Z,101789.16
2022-10-27T10:01:21.850Z,101787.97
2022-10-27T10:02:59.960Z,101790.41
2022-10-27T10:04:34.203Z,101792.13
2022-10-27T10:06:24.314Z,101786.00
2022-10-27T10:08:11.685Z,101785.16
2022-10-27T10:09:43.404Z,101786.16
2022-10-27T10:11:20.574Z,101787.03
2022-10-27T10:13:07.764Z,101785.84
2022-10-27T10:14:39.402Z,101774.75
2022-10-27T10:16:14.760Z,101775.44
2022-10-27T10:17:58.952Z,101769.75
2022-10-27T10:19:30.811Z,101775.53
2022-10-27T10:21:04.802Z,101770.69
2022-10-27T10:22:40.291Z,101768.72
2022-10-27T10:24:18.643Z,101778.28
2022-10-27T10:25:52.711Z,101770.97
2022-10-27T10:27:28.645Z,101776.81
2022-10-27T10:29:08.469Z,101768.63
2022-10-27T10:30:40.054Z,101765.88
2022-10-27T10:32:17.461Z,101763.81
2022-10-27T10:33:49.338Z,101766.50
2022-10-27T10:35:45.270Z,101767.31
2022-10-27T10:37:35.014Z,101765.44
2022-10-27T10:39:21.649Z,101764.56
2022-10-27T10:41:00.132Z,101773.69
2022-10-27T10:42:31.755Z,101759.19
2022-10-27T10:44:11.873Z,101750.06
2022-10-27T10:45:52.301Z,101759.97
2022-10-27T10:47:27.747Z,101748.34
2022-10-27T10:49:00.826Z,101749.28
2022-10-27T10:50:43.292Z,101746.63
2022-10-27T10:52:18.685Z,101740.16
2022-10-27T10:53:52.138Z,101735.41
2022-10-27T10:55:28.141Z,101730.72
2022-10-27T10:57:02.254Z,101739.81
2022-10-27T10:58:36.393Z,101738.09
2022-10-27T11:00:16.812Z,101742.47
2022-10-27T11:01:53.225Z,101738.81
2022-10-27T11:03:27.424Z,101739.41
2022-10-27T11:05:11.350Z,101730.28
2022-10-27T11:06:59.464Z,101729.25
2022-10-27T11:08:42.436Z,101727.22
2022-10-27T11:10:18.078Z,101726.47
2022-10-27T11:11:50.816Z,101728.09
2022-10-27T11:13:29.181Z,101724.38
2022-10-27T11:15:06.033Z,101726.09
2022-10-27T11:16:39.560Z,101719.81
2022-10-27T11:18:22.017Z,101721.34
2022-10-27T11:19:56.987Z,101723.72
2022-10-27T11:21:35.519Z,101718.00
2022-10-27T11:23:16.264Z,101720.50
2022-10-27T11:24:55.807Z,101717.59
2022-10-27T11:26:31.973Z,101714.91
2022-10-27T11:28:15.835Z,101708.72
2022-10-27T11:29:55.403Z,101724.34
2022-10-27T11:31:37.963Z,101710.31
2022-10-27T11:33:19.629Z,101705.16
2022-10-27T11:35:01.538Z,101704.97
2022-10-27T11:36:39.513Z,101716.13
2022-10-27T11:38:20.518Z,101703.06
2022-10-27T11:40:02.570Z,101704.00
2022-10-27T11:41:42.222Z,101700.09
2022-10-27T11:43:21.363Z,101696.56
2022-10-27T11:45:05.197Z,101691.03
2022-10-27T11:46:43.331Z,101694.56
2022-10-27T11:48:21.678Z,101688.38
2022-10-27T11:49:59.207Z,101683.56
2022-10-27T11:51:35.421Z,101685.28
2022-10-27T11:53:12.346Z,101676.31
2022-10-27T11:54:46.123Z,101674.22
2022-10-27T11:56:35.287Z,101684.72
2022-10-27T11:58:16.875Z,101666.88
2022-10-27T12:00:06.940Z,101667.56
2022-10-27T12:01:54.484Z,101668.09
2022-10-27T12:03:41.332Z,101667.13
2022-10-27T12:05:22.365Z,101663.22
2022-10-27T12:07:06.207Z,101657.69
2022-10-27T12:08:51.912Z,101659.59
2022-10-27T12:10:33.520Z,101657.78
2022-10-27T12:12:11.427Z,101666.44
2022-10-27T12:13:50.842Z,101669.97
2022-10-27T12:15:29.221Z,101663.75
2022-10-27T12:17:08.462Z,101656.31
2022-10-27T12:18:48.199Z,101657.19
2022-10-27T12:20:24.412Z,101657.38
2022-10-27T12:22:03.831Z,101665.75
2022-10-27T12:23:43.188Z,101650.47
2022-10-27T12:25:21.326Z,101656.56
2022-10-27T12:26:57.405Z,101650.91
2022-10-27T12:28:30.812Z,101656.63
2022-10-27T12:30:08.732Z,101649.84
2022-10-27T12:31:48.050Z,101648.59
2022-10-27T12:33:25.507Z,101654.38
2022-10-27T12:35:03.697Z,101646.91
2022-10-27T12:36:41.812Z,101651.63
2022-10-27T12:38:19.706Z,101648.44
2022-10-27T12:39:57.708Z,101645.44
2022-10-27T12:41:33.723Z,101650.47
2022-10-27T12:43:16.769Z,101642.25
2022-10-27T12:46:49.234Z,101643.63
2022-10-27T12:48:31.144Z,101647.72
2022-10-27T12:50:17.874Z,101644.06
2022-10-27T12:51:58.948Z,101637.66
2022-10-27T12:53:40.143Z,101638.06
2022-10-27T12:55:27.201Z,101636.03
2022-10-27T12:57:16.172Z,101630.50
2022-10-27T12:58:55.404Z,101628.47
2022-10-27T13:00:27.973Z,101630.19
2022-10-27T13:02:05.823Z,101631.91
2022-10-27T13:03:52.523Z,101617.00
2022-10-27T13:05:54.093Z,101615.19
2022-10-27T13:07:45.948Z,101608.97
2022-10-27T13:09:43.717Z,101615.59
2022-10-27T13:12:01.880Z,101607.13
2022-10-27T13:14:02.867Z,101605.50
2022-10-27T13:15:50.939Z,101610.00
2022-10-27T13:17:31.791Z,101599.53
2022-10-27T13:19:26.126Z,101606.38
2022-10-27T13:21:05.201Z,101596.19
2022-10-27T13:22:43.910Z,101590.63
2022-10-27T13:24:27.833Z,101584.28
2022-10-27T13:26:13.824Z,101590.25
2022-10-27T13:27:53.157Z,101593.69
2022-10-27T13:29:34.874Z,101590.16
2022-10-27T13:31:15.707Z,101590.16
2022-10-27T13:32:53.982Z,101588.44
2022-10-27T13:34:25.632Z,101587.59
2022-10-27T13:36:15.549Z,101592.34
2022-10-27T13:37:48.701Z,101590.41
2022-10-27T13:39:45.401Z,101582.22
2022-10-27T13:41:48.932Z,101573.31
2022-10-27T13:43:45.100Z,101562.13
2022-10-27T13:45:49.333Z,101565.84
2022-10-27T13:47:24.050Z,101567.22
2022-10-27T13:48:57.089Z,101570.94
2022-10-27T13:50:32.541Z,101571.81
2022-10-27T13:52:14.307Z,101567.94
2022-10-27T13:53:45.902Z,101575.53
2022-10-27T13:55:34.344Z,101570.91
2022-10-27T13:57:46.252Z,101562.25
2022-10-27T13:59:24.750Z,101566.22
2022-10-27T14:01:05.293Z,101565.47
2022-10-27T14:02:49.064Z,101571.09
2022-10-27T14:04:37.331Z,101569.50
2022-10-27T14:06:20.987Z,101577.88
2022-10-27T14:07:53.663Z,101566.34
2022-10-27T14:09:32.284Z,101569.16
2022-10-27T14:11:10.787Z,101557.94
2022-10-27T14:12:42.505Z,101564.47
2022-10-27T14:14:23.069Z,101560.19
2022-10-27T14:15:59.774Z,101563.63
2022-10-27T14:17:31.671Z,101557.84
2022-10-27T14:19:05.614Z,101559.28
2022-10-27T14:20:41.034Z,101562.28
2022-10-27T14:22:27.368Z,101557.25
2022-10-27T14:24:03.769Z,101559.41
2022-10-27T14:25:35.404Z,101559.84
2022-10-27T14:27:13.846Z,101564.34
2022-10-27T14:28:47.339Z,101557.50
2022-10-27T14:30:21.745Z,101558.34
2022-10-27T14:32:13.087Z,101562.13
2022-10-27T14:33:44.827Z,101559.78
2022-10-27T14:35:25.622Z,101557.97
2022-10-27T14:36:58.883Z,101553.47
2022-10-27T14:40:17.124Z,101550.44
2022-10-27T14:41:50.898Z,101552.53
2022-10-27T14:43:25.554Z,101544.38
2022-10-27T14:45:01.833Z,101551.56
2022-10-27T14:46:40.934Z,101550.91
2022-10-27T14:48:23.635Z,101556.75
2022-10-27T14:49:59.185Z,101554.19
2022-10-27T14:51:34.378Z,101555.41
2022-10-27T14:53:23.463Z,101558.38
2022-10-27T14:54:56.612Z,101564.16
2022-10-27T14:56:30.244Z,101567.84
2022-10-27T14:58:02.577Z,101565.25
2022-10-27T14:59:34.746Z,101569.00
2022-10-27T15:01:25.716Z,101563.75
2022-10-27T15:03:04.074Z,101567.59
2022-10-27T15:04:36.215Z,101566.84
2022-10-27T15:06:16.200Z,101568.03
2022-10-27T15:07:52.235Z,101556.47
2022-10-27T15:09:32.555Z,101566.31
2022-10-27T15:11:06.617Z,101568.25
2022-10-27T15:12:38.826Z,101562.03
2022-10-27T15:14:10.859Z,101570.16
2022-10-27T15:15:44.786Z,101574.75
2022-10-27T15:17:23.270Z,101568.66
2022-10-27T15:18:55.170Z,101569.72
2022-10-27T15:20:27.231Z,101562.66
2022-10-27T15:22:00.314Z,101567.28
2022-10-27T15:23:33.393Z,101567.38
2022-10-27T15:25:12.500Z,101562.13
2022-10-27T15:26:44.720Z,101574.66
2022-10-27T15:28:17.333Z,101552.38
2022-10-27T15:29:51.723Z,101548.84
2022-10-27T15:31:25.280Z,101553.66
2022-10-27T15:33:00.006Z,101559.22
2022-10-27T15:34:35.820Z,101563.84
2022-10-27T15:36:24.306Z,101540.81
2022-10-27T15:37:56.467Z,101539.41
2022-10-27T15:39:28.140Z,101549.41
2022-10-27T15:41:17.314Z,101536.13
2022-10-27T15:42:53.149Z,101538.94
2022-10-27T15:44:27.173Z,101545.34
2022-10-27T15:46:09.882Z,101542.03
2022-10-27T15:47:47.479Z,101550.16
2022-10-27T15:49:28.164Z,101548.44
2022-10-27T15:51:02.612Z,101552.16
2022-10-27T15:52:34.567Z,101546.28
2022-10-27T15:56:00.285Z,101542.94
2022-10-27T15:57:35.684Z,101552.03
2022-10-27T15:59:13.983Z,101546.88
2022-10-27T16:01:01.854Z,101547.94
2022-10-27T16:02:35.769Z,101557.03
2022-10-27T16:04:24.712Z,101543.03
2022-10-27T16:06:20.118Z,101555.72
2022-10-27T16:07:51.929Z,101563.94
2022-10-27T16:09:37.691Z,101558.59
2022-10-27T16:11:12.762Z,101548.75
2022-10-27T16:12:45.783Z,101560.41
2022-10-27T16:14:17.570Z,101561.38
2022-10-27T16:15:49.627Z,101563.31
2022-10-27T16:17:24.301Z,101565.13
2022-10-27T16:18:56.233Z,101566.94
2022-10-27T16:20:33.921Z,101560.81
2022-10-27T16:22:05.658Z,101568.84
2022-10-27T16:23:38.890Z,101563.50
2022-10-27T16:25:13.278Z,101564.56
2022-10-27T16:26:45.654Z,101576.28
2022-10-27T16:28:23.381Z,101577.44
2022-10-27T16:29:58.611Z,101586.63
2022-10-27T16:31:30.584Z,101585.78
2022-10-27T16:33:04.331Z,101576.03
2022-10-27T16:34:35.970Z,101571.75
2022-10-27T16:36:11.944Z,101586.94
2022-10-27T16:37:43.788Z,101589.69
2022-10-27T16:39:15.880Z,101584.34
2022-10-27T16:40:48.388Z,101584.44
2022-10-27T16:42:20.377Z,101587.97
2022-10-27T16:43:53.590Z,101597.63
2022-10-27T16:45:25.398Z,101591.59
2022-10-27T16:46:58.010Z,101589.03
2022-10-27T16:48:32.882Z,101591.78
2022-10-27T16:50:09.663Z,101585.59
2022-10-27T16:51:41.691Z,101585.59
2022-10-27T16:53:14.023Z,101586.66
2022-10-27T16:54:45.757Z,101586.66
2022-10-27T16:56:18.281Z,101591.25
2022-10-27T16:57:50.177Z,101589.50
2022-10-27T16:59:23.497Z,101602.84
2022-10-27T17:00:55.653Z,101598.38
2022-10-27T17:02:27.651Z,101603.91
2022-10-27T17:04:00.949Z,101602.94
2022-10-27T17:05:32.576Z,101602.84
2022-10-27T17:07:04.501Z,101614.41
2022-10-27T17:08:37.103Z,101605.53
2022-10-27T17:10:10.242Z,101595.69
2022-10-27T17:11:42.488Z,101611.66
2022-10-27T17:13:14.652Z,101617.00
2022-10-27T17:14:50.712Z,101610.81
2022-10-27T17:16:23.329Z,101615.44
2022-10-27T17:17:55.026Z,101608.38
2022-10-27T17:19:26.643Z,101610.09
2022-10-27T17:20:59.225Z,101604.75
2022-10-27T17:22:30.894Z,101610.19
2022-10-27T17:24:03.095Z,101608.47
2022-10-27T17:25:34.873Z,101611.25
2022-10-27T17:27:06.611Z,101613.16
2022-10-27T17:28:38.701Z,101609.72
2022-10-27T17:30:12.824Z,101600.00
2022-10-27T17:31:44.530Z,101606.31
2022-10-27T17:33:16.463Z,101613.38
2022-10-27T17:34:48.163Z,101599.16
2022-10-27T17:36:19.832Z,101597.53
2022-10-27T17:37:51.752Z,101598.56
2022-10-27T17:39:23.789Z,101593.31
2022-10-27T17:40:57.033Z,101591.59
2022-10-27T17:42:30.859Z,101592.56
2022-10-27T17:44:02.652Z,101597.03
2022-10-27T17:45:35.838Z,101589.88
2022-10-27T17:47:07.629Z,101591.78
2022-10-27T17:48:41.048Z,101591.97
2022-10-27T17:50:13.033Z,101589.44
2022-10-27T17:51:44.900Z,101590.38
2022-10-27T17:53:16.672Z,101597.53
2022-10-27T17:54:48.291Z,101594.97
2022-10-27T17:56:22.389Z,101594.09
2022-10-27T17:57:55.932Z,101595.91
2022-10-27T17:59:28.680Z,101596.00
2022-10-27T18:01:07.776Z,101596.88
2022-10-27T18:02:39.545Z,101601.53
2022-10-27T18:04:12.003Z,101595.50
2022-10-27T18:05:43.816Z,101607.34
2022-10-27T18:07:15.965Z,101612.78
2022-10-27T18:08:52.901Z,101611.16
2022-10-27T18:10:25.887Z,101607.81
2022-10-27T18:11:57.527Z,101599.91
2022-10-27T18:13:30.614Z,101604.38
2022-10-27T18:15:17.949Z,101604.47
2022-10-27T18:16:55.331Z,101601.16
2022-10-27T18:18:27.251Z,101604.75
2022-10-27T18:19:58.892Z,101603.22
2022-10-27T18:21:36.434Z,101596.16